sensor_id;sensor_type;location;lat;lon;timestamp;P1;durP1;ratioP1;P2;durP2;ratioP2
66585;SDS011;53444;45.822;16.092;2023-03-23T00:00:05;15.10;;;9.15;;
66585;SDS011;53444;45.822;16.092;2023-03-23T00:02:34;16.67;;;8.70;;
66585;SDS011;53444;45.822;16.092;2023-03-23T00:05:03;17.55;;;9.38;;
66585;SDS011;53444;45.822;16.092;2023-03-23T00:07:32;17.17;;;8.90;;
66585;SDS011;53444;45.822;16.092;2023-03-23T00:09:59;15.80;;;8.80;;
66585;SDS011;53444;45.822;16.092;2023-03-23T00:12:29;17.48;;;8.40;;
66585;SDS011;53444;45.822;16.092;2023-03-23T00:14:59;13.55;;;7.70;;
66585;SDS011;53444;45.822;16.092;2023-03-23T00:17:26;15.40;;;8.30;;
66585;SDS011;53444;45.822;16.092;2023-03-23T00:19:52;15.40;;;8.13;;
66585;SDS011;53444;45.822;16.092;2023-03-23T00:22:19;15.10;;;8.23;;
66585;SDS011;53444;45.822;16.092;2023-03-23T00:24:50;14.88;;;8.13;;
66585;SDS011;53444;45.822;16.092;2023-03-23T00:27:17;12.43;;;7.45;;
66585;SDS011;53444;45.822;16.092;2023-03-23T00:29:48;13.27;;;7.80;;
66585;SDS011;53444;45.822;16.092;2023-03-23T00:32:17;14.20;;;7.63;;
66585;SDS011;53444;45.822;16.092;2023-03-23T00:34:45;12.52;;;7.10;;
66585;SDS011;53444;45.822;16.092;2023-03-23T00:37:13;13.82;;;8.15;;
66585;SDS011;53444;45.822;16.092;2023-03-23T00:39:42;12.23;;;7.53;;
66585;SDS011;53444;45.822;16.092;2023-03-23T00:42:10;13.07;;;7.25;;
66585;SDS011;53444;45.822;16.092;2023-03-23T00:44:38;15.07;;;6.73;;
66585;SDS011;53444;45.822;16.092;2023-03-23T00:47:07;10.85;;;6.45;;
66585;SDS011;53444;45.822;16.092;2023-03-23T00:49:35;13.43;;;6.63;;
66585;SDS011;53444;45.822;16.092;2023-03-23T00:52:03;12.95;;;6.35;;
66585;SDS011;53444;45.822;16.092;2023-03-23T00:54:31;12.48;;;6.72;;
66585;SDS011;53444;45.822;16.092;2023-03-23T00:56:58;13.60;;;6.90;;
66585;SDS011;53444;45.822;16.092;2023-03-23T00:59:25;12.88;;;6.72;;
66585;SDS011;53444;45.822;16.092;2023-03-23T01:01:51;11.77;;;7.00;;
66585;SDS011;53444;45.822;16.092;2023-03-23T01:04:19;11.57;;;7.00;;
66585;SDS011;53444;45.822;16.092;2023-03-23T01:06:48;13.85;;;7.03;;
66585;SDS011;53444;45.822;16.092;2023-03-23T01:09:17;11.00;;;6.30;;
66585;SDS011;53444;45.822;16.092;2023-03-23T01:11:46;10.63;;;6.00;;
66585;SDS011;53444;45.822;16.092;2023-03-23T01:14:14;11.50;;;6.32;;
66585;SDS011;53444;45.822;16.092;2023-03-23T01:16:42;12.80;;;6.35;;
66585;SDS011;53444;45.822;16.092;2023-03-23T01:19:08;11.05;;;6.32;;
66585;SDS011;53444;45.822;16.092;2023-03-23T01:21:37;12.17;;;6.37;;
66585;SDS011;53444;45.822;16.092;2023-03-23T01:24:04;10.77;;;6.03;;
66585;SDS011;53444;45.822;16.092;2023-03-23T01:26:31;10.80;;;6.05;;
66585;SDS011;53444;45.822;16.092;2023-03-23T01:28:58;12.05;;;6.30;;
66585;SDS011;53444;45.822;16.092;2023-03-23T01:31:24;11.05;;;6.28;;
66585;SDS011;53444;45.822;16.092;2023-03-23T01:33:52;10.43;;;5.83;;
66585;SDS011;53444;45.822;16.092;2023-03-23T01:36:21;9.13;;;5.53;;
66585;SDS011;53444;45.822;16.092;2023-03-23T01:38:50;8.00;;;5.47;;
66585;SDS011;53444;45.822;16.092;2023-03-23T01:41:17;11.65;;;6.03;;
66585;SDS011;53444;45.822;16.092;2023-03-23T01:43:55;11.20;;;6.05;;
66585;SDS011;53444;45.822;16.092;2023-03-23T01:46:25;11.37;;;6.03;;
66585;SDS011;53444;45.822;16.092;2023-03-23T01:48:52;12.43;;;5.82;;
66585;SDS011;53444;45.822;16.092;2023-03-23T01:51:20;8.73;;;5.45;;
66585;SDS011;53444;45.822;16.092;2023-03-23T01:53:48;10.35;;;5.63;;
66585;SDS011;53444;45.822;16.092;2023-03-23T01:56:20;10.63;;;6.22;;
66585;SDS011;53444;45.822;16.092;2023-03-23T01:58:50;10.63;;;5.40;;
66585;SDS011;53444;45.822;16.092;2023-03-23T02:01:18;10.32;;;5.20;;
66585;SDS011;53444;45.822;16.092;2023-03-23T02:03:50;9.45;;;5.93;;
66585;SDS011;53444;45.822;16.092;2023-03-23T02:06:18;8.90;;;5.60;;
66585;SDS011;53444;45.822;16.092;2023-03-23T02:08:45;10.63;;;6.00;;
66585;SDS011;53444;45.822;16.092;2023-03-23T02:11:17;9.40;;;5.30;;
66585;SDS011;53444;45.822;16.092;2023-03-23T02:13:45;9.10;;;4.93;;
66585;SDS011;53444;45.822;16.092;2023-03-23T02:16:14;9.98;;;5.82;;
66585;SDS011;53444;45.822;16.092;2023-03-23T02:18:52;11.82;;;5.57;;
66585;SDS011;53444;45.822;16.092;2023-03-23T02:21:37;10.82;;;5.75;;
66585;SDS011;53444;45.822;16.092;2023-03-23T02:24:42;11.17;;;5.57;;
66585;SDS011;53444;45.822;16.092;2023-03-23T02:27:24;9.25;;;5.35;;
66585;SDS011;53444;45.822;16.092;2023-03-23T02:30:09;9.13;;;5.53;;
66585;SDS011;53444;45.822;16.092;2023-03-23T02:36:03;10.52;;;5.53;;
66585;SDS011;53444;45.822;16.092;2023-03-23T02:38:37;9.53;;;5.13;;
66585;SDS011;53444;45.822;16.092;2023-03-23T02:41:08;8.73;;;4.70;;
66585;SDS011;53444;45.822;16.092;2023-03-23T02:43:38;8.23;;;5.53;;
66585;SDS011;53444;45.822;16.092;2023-03-23T02:46:08;10.10;;;5.57;;
66585;SDS011;53444;45.822;16.092;2023-03-23T02:48:37;10.77;;;5.72;;
66585;SDS011;53444;45.822;16.092;2023-03-23T02:51:07;8.27;;;5.07;;
66585;SDS011;53444;45.822;16.092;2023-03-23T02:53:36;8.55;;;5.10;;
66585;SDS011;53444;45.822;16.092;2023-03-23T02:56:05;8.45;;;4.82;;
66585;SDS011;53444;45.822;16.092;2023-03-23T02:58:34;8.73;;;4.53;;
66585;SDS011;53444;45.822;16.092;2023-03-23T03:01:11;10.65;;;5.40;;
66585;SDS011;53444;45.822;16.092;2023-03-23T03:03:41;10.17;;;5.20;;
66585;SDS011;53444;45.822;16.092;2023-03-23T03:06:10;10.80;;;5.65;;
66585;SDS011;53444;45.822;16.092;2023-03-23T03:08:48;9.07;;;5.45;;
66585;SDS011;53444;45.822;16.092;2023-03-23T03:11:19;10.90;;;4.88;;
66585;SDS011;53444;45.822;16.092;2023-03-23T03:13:47;7.90;;;4.75;;
66585;SDS011;53444;45.822;16.092;2023-03-23T03:16:22;10.60;;;5.00;;
66585;SDS011;53444;45.822;16.092;2023-03-23T03:18:56;10.55;;;5.55;;
66585;SDS011;53444;45.822;16.092;2023-03-23T03:21:33;8.68;;;5.07;;
66585;SDS011;53444;45.822;16.092;2023-03-23T03:24:08;9.95;;;5.75;;
66585;SDS011;53444;45.822;16.092;2023-03-23T03:26:45;9.15;;;5.18;;
66585;SDS011;53444;45.822;16.092;2023-03-23T03:29:18;8.97;;;5.33;;
66585;SDS011;53444;45.822;16.092;2023-03-23T03:31:48;10.77;;;5.25;;
66585;SDS011;53444;45.822;16.092;2023-03-23T03:34:16;11.10;;;5.78;;
66585;SDS011;53444;45.822;16.092;2023-03-23T03:36:45;11.35;;;5.75;;
66585;SDS011;53444;45.822;16.092;2023-03-23T03:39:14;8.05;;;5.50;;
66585;SDS011;53444;45.822;16.092;2023-03-23T03:41:42;9.27;;;4.90;;
66585;SDS011;53444;45.822;16.092;2023-03-23T03:44:10;9.05;;;4.93;;
66585;SDS011;53444;45.822;16.092;2023-03-23T03:46:37;10.07;;;4.93;;
66585;SDS011;53444;45.822;16.092;2023-03-23T03:49:05;7.47;;;4.68;;
66585;SDS011;53444;45.822;16.092;2023-03-23T03:51:33;9.38;;;5.30;;
66585;SDS011;53444;45.822;16.092;2023-03-23T03:54:02;8.10;;;4.60;;
66585;SDS011;53444;45.822;16.092;2023-03-23T03:56:29;7.90;;;4.65;;
66585;SDS011;53444;45.822;16.092;2023-03-23T03:58:56;6.57;;;4.15;;
66585;SDS011;53444;45.822;16.092;2023-03-23T04:01:24;9.30;;;4.90;;
66585;SDS011;53444;45.822;16.092;2023-03-23T04:03:51;11.32;;;5.30;;
66585;SDS011;53444;45.822;16.092;2023-03-23T04:06:18;8.00;;;4.13;;
66585;SDS011;53444;45.822;16.092;2023-03-23T04:08:44;9.27;;;5.05;;
66585;SDS011;53444;45.822;16.092;2023-03-23T04:11:13;8.82;;;4.93;;
66585;SDS011;53444;45.822;16.092;2023-03-23T04:13:40;9.88;;;4.68;;
66585;SDS011;53444;45.822;16.092;2023-03-23T04:16:07;9.98;;;5.28;;
66585;SDS011;53444;45.822;16.092;2023-03-23T04:18:34;8.40;;;4.40;;
66585;SDS011;53444;45.822;16.092;2023-03-23T04:21:01;9.18;;;4.88;;
66585;SDS011;53444;45.822;16.092;2023-03-23T04:23:29;8.13;;;5.18;;
66585;SDS011;53444;45.822;16.092;2023-03-23T04:25:58;7.22;;;4.88;;
66585;SDS011;53444;45.822;16.092;2023-03-23T04:28:27;8.88;;;5.32;;
66585;SDS011;53444;45.822;16.092;2023-03-23T04:30:54;9.83;;;5.17;;
66585;SDS011;53444;45.822;16.092;2023-03-23T04:33:22;8.70;;;5.00;;
66585;SDS011;53444;45.822;16.092;2023-03-23T04:35:51;7.15;;;4.70;;
66585;SDS011;53444;45.822;16.092;2023-03-23T04:38:19;8.45;;;5.07;;
66585;SDS011;53444;45.822;16.092;2023-03-23T04:40:46;10.25;;;4.90;;
66585;SDS011;53444;45.822;16.092;2023-03-23T04:43:16;10.57;;;4.93;;
66585;SDS011;53444;45.822;16.092;2023-03-23T04:45:51;9.70;;;4.80;;
66585;SDS011;53444;45.822;16.092;2023-03-23T04:48:21;8.25;;;4.95;;
66585;SDS011;53444;45.822;16.092;2023-03-23T04:50:48;10.07;;;4.70;;
66585;SDS011;53444;45.822;16.092;2023-03-23T04:53:15;12.02;;;5.00;;
66585;SDS011;53444;45.822;16.092;2023-03-23T04:55:43;8.20;;;4.70;;
66585;SDS011;53444;45.822;16.092;2023-03-23T04:58:10;9.05;;;4.63;;
66585;SDS011;53444;45.822;16.092;2023-03-23T05:00:39;9.48;;;4.78;;
66585;SDS011;53444;45.822;16.092;2023-03-23T05:03:10;11.52;;;5.00;;
66585;SDS011;53444;45.822;16.092;2023-03-23T05:05:37;10.25;;;5.43;;
66585;SDS011;53444;45.822;16.092;2023-03-23T05:08:05;8.13;;;5.03;;
66585;SDS011;53444;45.822;16.092;2023-03-23T05:10:32;10.82;;;5.55;;
66585;SDS011;53444;45.822;16.092;2023-03-23T05:12:58;8.38;;;5.15;;
66585;SDS011;53444;45.822;16.092;2023-03-23T05:15:25;9.02;;;5.47;;
66585;SDS011;53444;45.822;16.092;2023-03-23T05:17:52;9.13;;;5.32;;
66585;SDS011;53444;45.822;16.092;2023-03-23T05:20:20;11.97;;;5.07;;
66585;SDS011;53444;45.822;16.092;2023-03-23T05:22:48;9.68;;;5.38;;
66585;SDS011;53444;45.822;16.092;2023-03-23T05:25:15;10.30;;;5.07;;
66585;SDS011;53444;45.822;16.092;2023-03-23T05:27:44;10.65;;;5.25;;
66585;SDS011;53444;45.822;16.092;2023-03-23T05:30:14;9.38;;;5.55;;
66585;SDS011;53444;45.822;16.092;2023-03-23T05:32:41;11.67;;;5.87;;
66585;SDS011;53444;45.822;16.092;2023-03-23T05:35:10;11.32;;;5.90;;
66585;SDS011;53444;45.822;16.092;2023-03-23T05:37:40;9.05;;;5.50;;
66585;SDS011;53444;45.822;16.092;2023-03-23T05:40:07;12.55;;;6.63;;
66585;SDS011;53444;45.822;16.092;2023-03-23T05:42:37;10.63;;;6.35;;
66585;SDS011;53444;45.822;16.092;2023-03-23T05:45:07;12.67;;;6.40;;
66585;SDS011;53444;45.822;16.092;2023-03-23T05:47:36;12.35;;;5.88;;
66585;SDS011;53444;45.822;16.092;2023-03-23T05:50:03;11.30;;;6.22;;
66585;SDS011;53444;45.822;16.092;2023-03-23T05:52:32;9.40;;;5.57;;
66585;SDS011;53444;45.822;16.092;2023-03-23T05:55:03;9.73;;;6.78;;
66585;SDS011;53444;45.822;16.092;2023-03-23T05:57:32;12.00;;;6.23;;
66585;SDS011;53444;45.822;16.092;2023-03-23T06:00:00;11.05;;;6.15;;
66585;SDS011;53444;45.822;16.092;2023-03-23T06:02:38;10.82;;;6.22;;
66585;SDS011;53444;45.822;16.092;2023-03-23T06:05:08;11.98;;;7.00;;
66585;SDS011;53444;45.822;16.092;2023-03-23T06:07:35;14.50;;;8.75;;
66585;SDS011;53444;45.822;16.092;2023-03-23T06:10:04;13.93;;;8.23;;
66585;SDS011;53444;45.822;16.092;2023-03-23T06:12:34;13.93;;;8.68;;
66585;SDS011;53444;45.822;16.092;2023-03-23T06:15:01;13.85;;;7.88;;
66585;SDS011;53444;45.822;16.092;2023-03-23T06:17:29;14.55;;;7.95;;
66585;SDS011;53444;45.822;16.092;2023-03-23T06:19:56;12.05;;;8.13;;
66585;SDS011;53444;45.822;16.092;2023-03-23T06:22:23;12.80;;;6.67;;
66585;SDS011;53444;45.822;16.092;2023-03-23T06:24:50;10.90;;;6.90;;
66585;SDS011;53444;45.822;16.092;2023-03-23T06:27:18;13.55;;;8.25;;
66585;SDS011;53444;45.822;16.092;2023-03-23T06:29:45;11.30;;;6.97;;
66585;SDS011;53444;45.822;16.092;2023-03-23T06:32:13;14.02;;;9.38;;
66585;SDS011;53444;45.822;16.092;2023-03-23T06:34:40;10.10;;;6.43;;
66585;SDS011;53444;45.822;16.092;2023-03-23T06:37:09;11.98;;;7.88;;
66585;SDS011;53444;45.822;16.092;2023-03-23T06:39:37;13.35;;;8.05;;
66585;SDS011;53444;45.822;16.092;2023-03-23T06:42:04;14.00;;;7.80;;
66585;SDS011;53444;45.822;16.092;2023-03-23T06:44:37;13.52;;;8.30;;
66585;SDS011;53444;45.822;16.092;2023-03-23T06:47:04;13.80;;;8.40;;
66585;SDS011;53444;45.822;16.092;2023-03-23T06:49:32;13.82;;;7.72;;
66585;SDS011;53444;45.822;16.092;2023-03-23T06:52:00;17.95;;;9.80;;
66585;SDS011;53444;45.822;16.092;2023-03-23T06:54:28;15.20;;;9.50;;
66585;SDS011;53444;45.822;16.092;2023-03-23T06:56:56;18.70;;;9.07;;
66585;SDS011;53444;45.822;16.092;2023-03-23T06:59:23;15.90;;;9.03;;
66585;SDS011;53444;45.822;16.092;2023-03-23T07:01:52;18.08;;;10.00;;
66585;SDS011;53444;45.822;16.092;2023-03-23T07:04:20;20.90;;;9.48;;
66585;SDS011;53444;45.822;16.092;2023-03-23T07:06:48;15.52;;;9.35;;
66585;SDS011;53444;45.822;16.092;2023-03-23T07:09:15;16.38;;;10.30;;
66585;SDS011;53444;45.822;16.092;2023-03-23T07:11:43;16.53;;;9.70;;
66585;SDS011;53444;45.822;16.092;2023-03-23T07:14:12;15.73;;;9.13;;
66585;SDS011;53444;45.822;16.092;2023-03-23T07:16:40;14.93;;;9.50;;
66585;SDS011;53444;45.822;16.092;2023-03-23T07:19:15;16.25;;;9.85;;
66585;SDS011;53444;45.822;16.092;2023-03-23T07:21:47;17.38;;;11.07;;
66585;SDS011;53444;45.822;16.092;2023-03-23T07:24:15;16.43;;;10.07;;
66585;SDS011;53444;45.822;16.092;2023-03-23T07:26:43;15.73;;;10.15;;
66585;SDS011;53444;45.822;16.092;2023-03-23T07:29:11;16.42;;;10.32;;
66585;SDS011;53444;45.822;16.092;2023-03-23T07:31:40;18.77;;;10.65;;
66585;SDS011;53444;45.822;16.092;2023-03-23T07:34:07;14.30;;;10.00;;
66585;SDS011;53444;45.822;16.092;2023-03-23T07:36:35;17.93;;;10.23;;
66585;SDS011;53444;45.822;16.092;2023-03-23T07:39:03;17.83;;;11.38;;
66585;SDS011;53444;45.822;16.092;2023-03-23T07:41:31;18.05;;;10.38;;
66585;SDS011;53444;45.822;16.092;2023-03-23T07:43:58;18.35;;;10.93;;
66585;SDS011;53444;45.822;16.092;2023-03-23T07:46:25;18.02;;;10.20;;
66585;SDS011;53444;45.822;16.092;2023-03-23T07:48:52;16.93;;;9.63;;
66585;SDS011;53444;45.822;16.092;2023-03-23T07:51:19;17.25;;;10.50;;
66585;SDS011;53444;45.822;16.092;2023-03-23T07:53:48;18.25;;;10.15;;
66585;SDS011;53444;45.822;16.092;2023-03-23T07:56:15;17.10;;;9.70;;
66585;SDS011;53444;45.822;16.092;2023-03-23T07:58:44;20.17;;;11.27;;
66585;SDS011;53444;45.822;16.092;2023-03-23T08:01:11;17.47;;;10.03;;
66585;SDS011;53444;45.822;16.092;2023-03-23T08:03:38;21.08;;;11.30;;
66585;SDS011;53444;45.822;16.092;2023-03-23T08:06:06;23.10;;;13.15;;
66585;SDS011;53444;45.822;16.092;2023-03-23T08:08:33;20.52;;;11.65;;
66585;SDS011;53444;45.822;16.092;2023-03-23T08:11:02;25.08;;;13.07;;
66585;SDS011;53444;45.822;16.092;2023-03-23T08:13:29;23.27;;;13.17;;
66585;SDS011;53444;45.822;16.092;2023-03-23T08:15:56;22.17;;;12.48;;
66585;SDS011;53444;45.822;16.092;2023-03-23T08:18:23;24.75;;;13.90;;
66585;SDS011;53444;45.822;16.092;2023-03-23T08:20:51;23.05;;;13.63;;
66585;SDS011;53444;45.822;16.092;2023-03-23T08:23:18;25.30;;;15.98;;
66585;SDS011;53444;45.822;16.092;2023-03-23T08:25:47;29.73;;;15.77;;
66585;SDS011;53444;45.822;16.092;2023-03-23T08:28:16;27.75;;;16.50;;
66585;SDS011;53444;45.822;16.092;2023-03-23T08:30:42;25.65;;;15.80;;
66585;SDS011;53444;45.822;16.092;2023-03-23T08:33:09;26.05;;;15.00;;
66585;SDS011;53444;45.822;16.092;2023-03-23T08:35:37;26.95;;;17.20;;
66585;SDS011;53444;45.822;16.092;2023-03-23T08:38:04;28.80;;;15.10;;
66585;SDS011;53444;45.822;16.092;2023-03-23T08:40:31;25.75;;;15.60;;
66585;SDS011;53444;45.822;16.092;2023-03-23T08:43:00;24.67;;;14.00;;
66585;SDS011;53444;45.822;16.092;2023-03-23T08:45:29;23.38;;;14.63;;
66585;SDS011;53444;45.822;16.092;2023-03-23T08:47:56;22.98;;;15.52;;
66585;SDS011;53444;45.822;16.092;2023-03-23T08:50:25;24.17;;;14.20;;
66585;SDS011;53444;45.822;16.092;2023-03-23T08:52:53;21.45;;;13.15;;
66585;SDS011;53444;45.822;16.092;2023-03-23T08:55:21;76.70;;;17.13;;
66585;SDS011;53444;45.822;16.092;2023-03-23T08:57:49;22.85;;;13.48;;
66585;SDS011;53444;45.822;16.092;2023-03-23T09:00:18;21.10;;;13.52;;
66585;SDS011;53444;45.822;16.092;2023-03-23T09:02:51;24.70;;;14.07;;
66585;SDS011;53444;45.822;16.092;2023-03-23T09:05:21;21.20;;;13.25;;
66585;SDS011;53444;45.822;16.092;2023-03-23T09:07:50;20.10;;;13.00;;
66585;SDS011;53444;45.822;16.092;2023-03-23T09:10:19;24.20;;;13.40;;
66585;SDS011;53444;45.822;16.092;2023-03-23T09:12:47;18.13;;;11.90;;
66585;SDS011;53444;45.822;16.092;2023-03-23T09:15:15;18.70;;;11.53;;
66585;SDS011;53444;45.822;16.092;2023-03-23T09:17:44;17.33;;;11.63;;
66585;SDS011;53444;45.822;16.092;2023-03-23T09:20:13;19.75;;;12.50;;
66585;SDS011;53444;45.822;16.092;2023-03-23T09:22:42;18.23;;;11.30;;
66585;SDS011;53444;45.822;16.092;2023-03-23T09:25:11;16.80;;;11.05;;
66585;SDS011;53444;45.822;16.092;2023-03-23T09:27:39;21.87;;;10.60;;
66585;SDS011;53444;45.822;16.092;2023-03-23T09:30:09;15.88;;;10.15;;
66585;SDS011;53444;45.822;16.092;2023-03-23T09:32:38;14.35;;;8.77;;
66585;SDS011;53444;45.822;16.092;2023-03-23T09:35:05;11.77;;;8.32;;
66585;SDS011;53444;45.822;16.092;2023-03-23T09:37:36;10.75;;;7.20;;
66585;SDS011;53444;45.822;16.092;2023-03-23T09:40:04;11.70;;;7.10;;
66585;SDS011;53444;45.822;16.092;2023-03-23T09:42:37;12.77;;;8.05;;
66585;SDS011;53444;45.822;16.092;2023-03-23T09:45:17;15.23;;;8.15;;
66585;SDS011;53444;45.822;16.092;2023-03-23T09:47:55;11.85;;;6.57;;
66585;SDS011;53444;45.822;16.092;2023-03-23T09:50:42;15.68;;;9.15;;
66585;SDS011;53444;45.822;16.092;2023-03-23T09:53:14;10.20;;;6.60;;
66585;SDS011;53444;45.822;16.092;2023-03-23T09:55:44;10.52;;;6.32;;
66585;SDS011;53444;45.822;16.092;2023-03-23T09:58:16;7.97;;;5.18;;
66585;SDS011;53444;45.822;16.092;2023-03-23T10:00:57;8.63;;;5.88;;
66585;SDS011;53444;45.822;16.092;2023-03-23T10:03:30;13.05;;;6.32;;
66585;SDS011;53444;45.822;16.092;2023-03-23T10:05:59;8.97;;;5.80;;
66585;SDS011;53444;45.822;16.092;2023-03-23T10:08:31;7.50;;;5.57;;
66585;SDS011;53444;45.822;16.092;2023-03-23T10:11:00;8.50;;;5.80;;
66585;SDS011;53444;45.822;16.092;2023-03-23T10:13:38;10.10;;;4.93;;
66585;SDS011;53444;45.822;16.092;2023-03-23T10:16:20;7.82;;;5.72;;
66585;SDS011;53444;45.822;16.092;2023-03-23T10:18:54;7.50;;;5.40;;
66585;SDS011;53444;45.822;16.092;2023-03-23T10:21:25;9.20;;;6.05;;
66585;SDS011;53444;45.822;16.092;2023-03-23T10:23:58;8.63;;;6.05;;
66585;SDS011;53444;45.822;16.092;2023-03-23T10:26:41;8.45;;;5.68;;
66585;SDS011;53444;45.822;16.092;2023-03-23T10:29:16;7.63;;;5.78;;
66585;SDS011;53444;45.822;16.092;2023-03-23T10:31:49;6.90;;;4.83;;
66585;SDS011;53444;45.822;16.092;2023-03-23T10:34:21;8.73;;;5.30;;
66585;SDS011;53444;45.822;16.092;2023-03-23T10:36:54;7.75;;;5.20;;
66585;SDS011;53444;45.822;16.092;2023-03-23T10:39:27;7.22;;;5.18;;
66585;SDS011;53444;45.822;16.092;2023-03-23T10:41:59;7.68;;;5.22;;
66585;SDS011;53444;45.822;16.092;2023-03-23T10:44:32;9.93;;;4.53;;
66585;SDS011;53444;45.822;16.092;2023-03-23T10:47:00;8.27;;;5.00;;
66585;SDS011;53444;45.822;16.092;2023-03-23T10:49:32;8.73;;;4.72;;
66585;SDS011;53444;45.822;16.092;2023-03-23T10:52:07;11.45;;;4.82;;
66585;SDS011;53444;45.822;16.092;2023-03-23T10:54:50;8.43;;;4.82;;
66585;SDS011;53444;45.822;16.092;2023-03-23T10:57:23;11.00;;;6.00;;
66585;SDS011;53444;45.822;16.092;2023-03-23T10:59:57;9.30;;;6.25;;
66585;SDS011;53444;45.822;16.092;2023-03-23T11:02:26;8.80;;;5.15;;
66585;SDS011;53444;45.822;16.092;2023-03-23T11:04:56;9.27;;;5.70;;
66585;SDS011;53444;45.822;16.092;2023-03-23T11:07:26;10.25;;;6.05;;
66585;SDS011;53444;45.822;16.092;2023-03-23T11:09:57;9.80;;;5.57;;
66585;SDS011;53444;45.822;16.092;2023-03-23T11:12:34;9.80;;;5.43;;
66585;SDS011;53444;45.822;16.092;2023-03-23T11:15:14;11.32;;;6.82;;
66585;SDS011;53444;45.822;16.092;2023-03-23T11:17:57;8.68;;;6.38;;
66585;SDS011;53444;45.822;16.092;2023-03-23T11:20:27;9.63;;;6.15;;
66585;SDS011;53444;45.822;16.092;2023-03-23T11:22:56;11.97;;;6.73;;
66585;SDS011;53444;45.822;16.092;2023-03-23T11:25:25;8.48;;;6.18;;
66585;SDS011;53444;45.822;16.092;2023-03-23T11:27:53;10.43;;;6.20;;
66585;SDS011;53444;45.822;16.092;2023-03-23T11:30:25;9.32;;;6.00;;
66585;SDS011;53444;45.822;16.092;2023-03-23T11:32:54;9.32;;;6.50;;
66585;SDS011;53444;45.822;16.092;2023-03-23T11:35:26;8.63;;;6.17;;
66585;SDS011;53444;45.822;16.092;2023-03-23T11:37:55;9.30;;;5.97;;
66585;SDS011;53444;45.822;16.092;2023-03-23T11:40:23;8.30;;;5.90;;
66585;SDS011;53444;45.822;16.092;2023-03-23T11:42:58;9.00;;;6.05;;
66585;SDS011;53444;45.822;16.092;2023-03-23T11:45:31;7.32;;;5.80;;
66585;SDS011;53444;45.822;16.092;2023-03-23T11:50:49;8.82;;;5.72;;
66585;SDS011;53444;45.822;16.092;2023-03-23T11:53:30;7.22;;;5.43;;
66585;SDS011;53444;45.822;16.092;2023-03-23T11:56:08;7.50;;;5.75;;
66585;SDS011;53444;45.822;16.092;2023-03-23T11:58:41;7.90;;;5.40;;
66585;SDS011;53444;45.822;16.092;2023-03-23T12:01:11;8.93;;;5.13;;
66585;SDS011;53444;45.822;16.092;2023-03-23T12:03:58;6.50;;;4.72;;
66585;SDS011;53444;45.822;16.092;2023-03-23T12:06:42;6.47;;;5.13;;
66585;SDS011;53444;45.822;16.092;2023-03-23T12:09:20;7.20;;;5.05;;
66585;SDS011;53444;45.822;16.092;2023-03-23T12:12:03;7.35;;;5.20;;
66585;SDS011;53444;45.822;16.092;2023-03-23T12:14:39;6.67;;;4.83;;
66585;SDS011;53444;45.822;16.092;2023-03-23T12:17:17;7.15;;;5.20;;
66585;SDS011;53444;45.822;16.092;2023-03-23T12:19:54;8.88;;;5.80;;
66585;SDS011;53444;45.822;16.092;2023-03-23T12:22:37;9.45;;;5.80;;
66585;SDS011;53444;45.822;16.092;2023-03-23T12:25:20;7.15;;;5.28;;
66585;SDS011;53444;45.822;16.092;2023-03-23T12:28:06;7.60;;;5.40;;
66585;SDS011;53444;45.822;16.092;2023-03-23T12:30:44;7.47;;;5.00;;
66585;SDS011;53444;45.822;16.092;2023-03-23T12:33:21;7.47;;;5.88;;
66585;SDS011;53444;45.822;16.092;2023-03-23T12:36:00;7.65;;;5.43;;
66585;SDS011;53444;45.822;16.092;2023-03-23T12:38:42;6.53;;;4.70;;
66585;SDS011;53444;45.822;16.092;2023-03-23T12:41:32;9.27;;;5.30;;
66585;SDS011;53444;45.822;16.092;2023-03-23T12:44:06;7.70;;;4.95;;
66585;SDS011;53444;45.822;16.092;2023-03-23T12:46:39;8.43;;;5.82;;
66585;SDS011;53444;45.822;16.092;2023-03-23T12:49:26;6.45;;;4.82;;
66585;SDS011;53444;45.822;16.092;2023-03-23T12:51:57;6.95;;;4.13;;
66585;SDS011;53444;45.822;16.092;2023-03-23T12:54:31;5.13;;;3.70;;
66585;SDS011;53444;45.822;16.092;2023-03-23T12:57:02;7.38;;;4.53;;
66585;SDS011;53444;45.822;16.092;2023-03-23T12:59:38;5.85;;;4.40;;
66585;SDS011;53444;45.822;16.092;2023-03-23T13:02:10;7.18;;;3.65;;
66585;SDS011;53444;45.822;16.092;2023-03-23T13:04:45;6.30;;;4.35;;
66585;SDS011;53444;45.822;16.092;2023-03-23T13:07:18;6.37;;;3.90;;
66585;SDS011;53444;45.822;16.092;2023-03-23T13:09:52;5.05;;;4.00;;
66585;SDS011;53444;45.822;16.092;2023-03-23T13:12:24;5.28;;;3.92;;
66585;SDS011;53444;45.822;16.092;2023-03-23T13:14:59;5.13;;;3.90;;
66585;SDS011;53444;45.822;16.092;2023-03-23T13:17:37;4.82;;;3.60;;
66585;SDS011;53444;45.822;16.092;2023-03-23T13:23:08;4.93;;;3.97;;
66585;SDS011;53444;45.822;16.092;2023-03-23T13:25:45;5.53;;;4.40;;
66585;SDS011;53444;45.822;16.092;2023-03-23T13:28:16;4.60;;;3.60;;
66585;SDS011;53444;45.822;16.092;2023-03-23T13:30:56;5.05;;;3.90;;
66585;SDS011;53444;45.822;16.092;2023-03-23T13:33:25;5.87;;;3.70;;
66585;SDS011;53444;45.822;16.092;2023-03-23T13:35:52;3.80;;;3.30;;
66585;SDS011;53444;45.822;16.092;2023-03-23T13:38:20;4.43;;;3.40;;
66585;SDS011;53444;45.822;16.092;2023-03-23T13:40:49;4.03;;;3.10;;
66585;SDS011;53444;45.822;16.092;2023-03-23T13:43:24;5.05;;;4.15;;
66585;SDS011;53444;45.822;16.092;2023-03-23T13:45:53;5.70;;;4.03;;
66585;SDS011;53444;45.822;16.092;2023-03-23T13:48:23;4.53;;;3.60;;
66585;SDS011;53444;45.822;16.092;2023-03-23T13:50:52;5.57;;;3.53;;
66585;SDS011;53444;45.822;16.092;2023-03-23T13:53:23;3.90;;;3.38;;
66585;SDS011;53444;45.822;16.092;2023-03-23T13:56:05;4.18;;;3.55;;
66585;SDS011;53444;45.822;16.092;2023-03-23T13:58:43;4.80;;;3.53;;
66585;SDS011;53444;45.822;16.092;2023-03-23T14:01:13;4.38;;;3.38;;
66585;SDS011;53444;45.822;16.092;2023-03-23T14:03:45;4.38;;;3.40;;
66585;SDS011;53444;45.822;16.092;2023-03-23T14:06:15;4.07;;;2.97;;
66585;SDS011;53444;45.822;16.092;2023-03-23T14:08:45;4.63;;;3.55;;
66585;SDS011;53444;45.822;16.092;2023-03-23T14:11:15;4.50;;;3.10;;
66585;SDS011;53444;45.822;16.092;2023-03-23T14:13:56;3.53;;;3.10;;
66585;SDS011;53444;45.822;16.092;2023-03-23T14:16:31;6.07;;;3.65;;
66585;SDS011;53444;45.822;16.092;2023-03-23T14:19:03;4.07;;;3.05;;
66585;SDS011;53444;45.822;16.092;2023-03-23T14:21:39;5.18;;;3.42;;
66585;SDS011;53444;45.822;16.092;2023-03-23T14:24:09;4.50;;;3.27;;
66585;SDS011;53444;45.822;16.092;2023-03-23T14:26:39;4.97;;;3.45;;
66585;SDS011;53444;45.822;16.092;2023-03-23T14:29:09;5.82;;;3.92;;
66585;SDS011;53444;45.822;16.092;2023-03-23T14:31:37;5.32;;;3.67;;
66585;SDS011;53444;45.822;16.092;2023-03-23T14:34:11;4.18;;;3.67;;
66585;SDS011;53444;45.822;16.092;2023-03-23T14:36:42;4.77;;;3.50;;
66585;SDS011;53444;45.822;16.092;2023-03-23T14:39:13;5.22;;;3.60;;
66585;SDS011;53444;45.822;16.092;2023-03-23T14:41:43;5.38;;;3.70;;
66585;SDS011;53444;45.822;16.092;2023-03-23T14:44:12;3.50;;;3.20;;
66585;SDS011;53444;45.822;16.092;2023-03-23T14:46:42;4.72;;;3.60;;
66585;SDS011;53444;45.822;16.092;2023-03-23T14:49:12;6.33;;;3.70;;
66585;SDS011;53444;45.822;16.092;2023-03-23T14:51:46;3.80;;;3.35;;
66585;SDS011;53444;45.822;16.092;2023-03-23T14:54:14;5.25;;;3.83;;